sensor_id;sensor_type;location;lat;lon;timestamp;pressure;altitude;pressure_sealevel;temperature;humidity
11808;BME280;5961;42.640;23.380;2023-04-29T00:01:32;94079.75;;;8.61;61.25
11808;BME280;5961;42.640;23.380;2023-04-29T00:03:59;94092.78;;;8.75;61.31
11808;BME280;5961;42.640;23.380;2023-04-29T00:06:26;94086.22;;;8.81;60.86
11808;BME280;5961;42.640;23.380;2023-04-29T00:08:53;94082.50;;;8.82;61.00
11808;BME280;5961;42.640;23.380;2023-04-29T00:11:20;94082.94;;;8.84;61.13
11808;BME280;5961;42.640;23.380;2023-04-29T00:13:47;94080.78;;;8.77;60.56
11808;BME280;5961;42.640;23.380;2023-04-29T00:16:15;94089.97;;;8.80;60.34
11808;BME280;5961;42.640;23.380;2023-04-29T00:18:41;94081.47;;;8.66;60.46
11808;BME280;5961;42.640;23.380;2023-04-29T00:21:08;94092.00;;;8.74;60.12
11808;BME280;5961;42.640;23.380;2023-04-29T00:23:35;94097.94;;;8.71;60.40
11808;BME280;5961;42.640;23.380;2023-04-29T00:26:02;94095.50;;;8.66;60.24
11808;BME280;5961;42.640;23.380;2023-04-29T00:28:28;94095.16;;;8.68;59.89
11808;BME280;5961;42.640;23.380;2023-04-29T00:30:56;94102.81;;;8.69;59.72
11808;BME280;5961;42.640;23.380;2023-04-29T00:33:24;94060.97;;;8.46;59.04
11808;BME280;5961;42.640;23.380;2023-04-29T00:35:51;94104.13;;;8.84;59.13
11808;BME280;5961;42.640;23.380;2023-04-29T00:38:17;94096.34;;;8.88;58.56
11808;BME280;5961;42.640;23.380;2023-04-29T00:40:45;94097.56;;;8.90;58.20
11808;BME280;5961;42.640;23.380;2023-04-29T00:43:12;94101.13;;;8.94;59.84
11808;BME280;5961;42.640;23.380;2023-04-29T00:45:39;94100.81;;;8.96;60.09
11808;BME280;5961;42.640;23.380;2023-04-29T00:48:06;94098.47;;;8.94;62.57
11808;BME280;5961;42.640;23.380;2023-04-29T00:50:34;94095.63;;;8.99;63.13
11808;BME280;5961;42.640;23.380;2023-04-29T00:53:02;94097.31;;;9.04;63.45
11808;BME280;5961;42.640;23.380;2023-04-29T00:55:29;94089.09;;;8.97;63.76
11808;BME280;5961;42.640;23.380;2023-04-29T00:57:56;94078.38;;;8.93;63.69
11808;BME280;5961;42.640;23.380;2023-04-29T01:00:23;94084.41;;;9.02;63.10
11808;BME280;5961;42.640;23.380;2023-04-29T01:02:51;94057.16;;;8.93;62.85
11808;BME280;5961;42.640;23.380;2023-04-29T01:05:18;94071.97;;;8.94;61.39
11808;BME280;5961;42.640;23.380;2023-04-29T01:07:55;94057.75;;;8.99;60.58
11808;BME280;5961;42.640;23.380;2023-04-29T01:10:28;94053.38;;;9.03;60.11
11808;BME280;5961;42.640;23.380;2023-04-29T01:13:02;94060.34;;;9.07;59.75
11808;BME280;5961;42.640;23.380;2023-04-29T01:15:36;94045.72;;;9.01;59.64
11808;BME280;5961;42.640;23.380;2023-04-29T01:18:09;94049.94;;;9.02;58.76
11808;BME280;5961;42.640;23.380;2023-04-29T01:20:37;94044.50;;;8.99;58.69
11808;BME280;5961;42.640;23.380;2023-04-29T01:23:06;94054.25;;;9.07;59.33
11808;BME280;5961;42.640;23.380;2023-04-29T01:25:34;94048.66;;;9.08;58.66
11808;BME280;5961;42.640;23.380;2023-04-29T01:28:09;94053.13;;;9.16;56.60
11808;BME280;5961;42.640;23.380;2023-04-29T01:30:44;94017.41;;;8.93;55.83
11808;BME280;5961;42.640;23.380;2023-04-29T01:33:18;94050.28;;;9.21;55.87
11808;BME280;5961;42.640;23.380;2023-04-29T01:35:59;94049.66;;;9.24;55.53
11808;BME280;5961;42.640;23.380;2023-04-29T01:38:36;94055.19;;;9.31;55.53
11808;BME280;5961;42.640;23.380;2023-04-29T01:41:14;94047.72;;;9.33;57.08
11808;BME280;5961;42.640;23.380;2023-04-29T01:43:42;94050.81;;;9.35;57.77
11808;BME280;5961;42.640;23.380;2023-04-29T01:46:09;94050.38;;;9.33;58.56
11808;BME280;5961;42.640;23.380;2023-04-29T01:48:37;94037.22;;;9.16;59.28
11808;BME280;5961;42.640;23.380;2023-04-29T01:51:03;94041.41;;;9.17;59.81
11808;BME280;5961;42.640;23.380;2023-04-29T01:53:31;94042.00;;;9.02;60.80
11808;BME280;5961;42.640;23.380;2023-04-29T01:55:58;94040.94;;;8.65;61.66
11808;BME280;5961;42.640;23.380;2023-04-29T01:58:26;94039.00;;;8.45;62.23
11808;BME280;5961;42.640;23.380;2023-04-29T02:00:53;94033.13;;;8.31;62.98
11808;BME280;5961;42.640;23.380;2023-04-29T02:03:21;94031.94;;;8.11;64.65
11808;BME280;5961;42.640;23.380;2023-04-29T02:05:47;94039.72;;;8.08;65.19
11808;BME280;5961;42.640;23.380;2023-04-29T02:08:15;94034.00;;;7.97;65.91
11808;BME280;5961;42.640;23.380;2023-04-29T02:10:50;93996.09;;;7.59;65.89
11808;BME280;5961;42.640;23.380;2023-04-29T02:13:17;94046.16;;;7.81;65.46
11808;BME280;5961;42.640;23.380;2023-04-29T02:15:45;94048.50;;;7.91;65.06
11808;BME280;5961;42.640;23.380;2023-04-29T02:18:12;94052.09;;;7.78;65.81
11808;BME280;5961;42.640;23.380;2023-04-29T02:20:38;94048.81;;;7.81;65.88
11808;BME280;5961;42.640;23.380;2023-04-29T02:23:05;94052.41;;;7.68;66.33
11808;BME280;5961;42.640;23.380;2023-04-29T02:25:32;94046.63;;;7.74;65.95
11808;BME280;5961;42.640;23.380;2023-04-29T02:27:58;94041.97;;;7.71;65.93
11808;BME280;5961;42.640;23.380;2023-04-29T02:30:25;94050.88;;;7.67;65.66
11808;BME280;5961;42.640;23.380;2023-04-29T02:32:53;94036.53;;;7.68;65.64
11808;BME280;5961;42.640;23.380;2023-04-29T02:35:20;94045.84;;;7.74;65.34
11808;BME280;5961;42.640;23.380;2023-04-29T02:37:47;94036.53;;;7.68;64.25
11808;BME280;5961;42.640;23.380;2023-04-29T02:40:14;94049.75;;;7.85;64.92
11808;BME280;5961;42.640;23.380;2023-04-29T02:42:40;94037.75;;;7.88;65.24
11808;BME280;5961;42.640;23.380;2023-04-29T02:45:08;94036.81;;;7.92;64.69
11808;BME280;5961;42.640;23.380;2023-04-29T02:47:35;94027.31;;;7.83;64.42
11808;BME280;5961;42.640;23.380;2023-04-29T02:50:03;94041.31;;;7.92;64.26
11808;BME280;5961;42.640;23.380;2023-04-29T02:52:31;94006.97;;;7.66;64.67
11808;BME280;5961;42.640;23.380;2023-04-29T02:54:57;94044.31;;;7.82;65.20
11808;BME280;5961;42.640;23.380;2023-04-29T02:57:24;94055.50;;;7.87;65.09
11808;BME280;5961;42.640;23.380;2023-04-29T02:59:51;94054.88;;;7.90;66.07
11808;BME280;5961;42.640;23.380;2023-04-29T03:02:18;94061.72;;;7.91;65.22
11808;BME280;5961;42.640;23.380;2023-04-29T03:04:44;94073.38;;;7.99;64.91
11808;BME280;5961;42.640;23.380;2023-04-29T03:07:12;94072.63;;;7.81;66.02
11808;BME280;5961;42.640;23.380;2023-04-29T03:09:41;94078.81;;;8.02;65.55
11808;BME280;5961;42.640;23.380;2023-04-29T03:12:08;94071.19;;;8.01;65.70
11808;BME280;5961;42.640;23.380;2023-04-29T03:14:35;94059.97;;;8.04;65.94
11808;BME280;5961;42.640;23.380;2023-04-29T03:17:01;94065.72;;;8.14;66.60
11808;BME280;5961;42.640;23.380;2023-04-29T03:19:29;94056.69;;;8.15;66.86
11808;BME280;5961;42.640;23.380;2023-04-29T03:21:56;94065.53;;;8.28;66.31
11808;BME280;5961;42.640;23.380;2023-04-29T03:24:24;94070.06;;;8.27;65.73
11808;BME280;5961;42.640;23.380;2023-04-29T03:26:50;94062.09;;;8.19;66.39
11808;BME280;5961;42.640;23.380;2023-04-29T03:29:17;94080.03;;;8.31;65.74
11808;BME280;5961;42.640;23.380;2023-04-29T03:31:44;94075.00;;;8.38;65.53
11808;BME280;5961;42.640;23.380;2023-04-29T03:34:10;94083.75;;;8.38;65.08
11808;BME280;5961;42.640;23.380;2023-04-29T03:36:38;94088.25;;;8.38;64.46
11808;BME280;5961;42.640;23.380;2023-04-29T03:39:05;94091.72;;;8.30;64.05
11808;BME280;5961;42.640;23.380;2023-04-29T03:41:33;94099.19;;;8.10;64.67
11808;BME280;5961;42.640;23.380;2023-04-29T03:44:00;94107.28;;;8.14;64.40
11808;BME280;5961;42.640;23.380;2023-04-29T03:46:27;94104.03;;;8.08;64.33
11808;BME280;5961;42.640;23.380;2023-04-29T03:48:54;94111.31;;;8.20;64.23
11808;BME280;5961;42.640;23.380;2023-04-29T03:51:22;94101.84;;;8.27;64.24
11808;BME280;5961;42.640;23.380;2023-04-29T03:53:49;94105.25;;;8.37;64.63
11808;BME280;5961;42.640;23.380;2023-04-29T03:56:16;94091.34;;;8.48;64.56
11808;BME280;5961;42.640;23.380;2023-04-29T03:58:44;94095.81;;;8.56;64.75
11808;BME280;5961;42.640;23.380;2023-04-29T04:01:11;94094.06;;;8.69;64.32
11808;BME280;5961;42.640;23.380;2023-04-29T04:03:38;94098.53;;;8.77;63.60
11808;BME280;5961;42.640;23.380;2023-04-29T04:06:05;94091.06;;;8.79;61.87
11808;BME280;5961;42.640;23.380;2023-04-29T04:08:32;94091.41;;;8.69;60.95
11808;BME280;5961;42.640;23.380;2023-04-29T04:10:58;94082.44;;;8.53;60.93
11808;BME280;5961;42.640;23.380;2023-04-29T04:13:27;94096.91;;;8.55;61.79
11808;BME280;5961;42.640;23.380;2023-04-29T04:15:55;94091.69;;;8.38;62.84
11808;BME280;5961;42.640;23.380;2023-04-29T04:18:22;94078.50;;;8.12;63.78
11808;BME280;5961;42.640;23.380;2023-04-29T04:20:49;94103.72;;;8.18;64.35
11808;BME280;5961;42.640;23.380;2023-04-29T04:23:16;94084.09;;;8.02;65.19
11808;BME280;5961;42.640;23.380;2023-04-29T04:25:46;94100.16;;;8.06;66.17
11808;BME280;5961;42.640;23.380;2023-04-29T04:28:13;94088.47;;;7.98;66.27
11808;BME280;5961;42.640;23.380;2023-04-29T04:30:40;94098.75;;;8.00;66.91
11808;BME280;5961;42.640;23.380;2023-04-29T04:33:08;94075.25;;;7.90;67.11
11808;BME280;5961;42.640;23.380;2023-04-29T04:35:35;94090.03;;;7.99;67.67
11808;BME280;5961;42.640;23.380;2023-04-29T04:38:02;94081.63;;;7.97;68.08
11808;BME280;5961;42.640;23.380;2023-04-29T04:40:29;94090.97;;;7.95;68.71
11808;BME280;5961;42.640;23.380;2023-04-29T04:42:56;94091.44;;;7.97;69.13
11808;BME280;5961;42.640;23.380;2023-04-29T04:45:23;94088.47;;;7.98;69.69
11808;BME280;5961;42.640;23.380;2023-04-29T04:47:49;94085.81;;;7.98;69.69
11808;BME280;5961;42.640;23.380;2023-04-29T04:50:18;94089.25;;;7.99;70.33
11808;BME280;5961;42.640;23.380;2023-04-29T04:52:45;94094.25;;;8.00;70.34
11808;BME280;5961;42.640;23.380;2023-04-29T04:55:12;94102.31;;;8.04;70.27
11808;BME280;5961;42.640;23.380;2023-04-29T04:57:38;94109.31;;;8.08;70.20
11808;BME280;5961;42.640;23.380;2023-04-29T05:00:06;94097.78;;;8.13;69.96
11808;BME280;5961;42.640;23.380;2023-04-29T05:02:33;94075.25;;;7.98;69.76
11808;BME280;5961;42.640;23.380;2023-04-29T05:05:00;94099.34;;;8.14;69.77
11808;BME280;5961;42.640;23.380;2023-04-29T05:07:28;94095.75;;;8.18;70.15
11808;BME280;5961;42.640;23.380;2023-04-29T05:09:54;94091.41;;;8.14;70.21
11808;BME280;5961;42.640;23.380;2023-04-29T05:12:21;94084.84;;;8.28;70.22
11808;BME280;5961;42.640;23.380;2023-04-29T05:14:51;94081.53;;;8.40;69.96
11808;BME280;5961;42.640;23.380;2023-04-29T05:17:18;94075.28;;;8.53;69.63
11808;BME280;5961;42.640;23.380;2023-04-29T05:19:45;94081.91;;;8.68;69.62
11808;BME280;5961;42.640;23.380;2023-04-29T05:22:12;94076.44;;;8.73;69.50
11808;BME280;5961;42.640;23.380;2023-04-29T05:24:40;94066.59;;;8.73;69.32
11808;BME280;5961;42.640;23.380;2023-04-29T05:27:06;94052.13;;;8.71;68.74
11808;BME280;5961;42.640;23.380;2023-04-29T05:29:33;94061.28;;;8.82;68.28
11808;BME280;5961;42.640;23.380;2023-04-29T05:32:00;94050.22;;;8.80;68.34
11808;BME280;5961;42.640;23.380;2023-04-29T05:34:27;94056.72;;;8.91;68.33
11808;BME280;5961;42.640;23.380;2023-04-29T05:36:53;94050.56;;;8.99;68.19
11808;BME280;5961;42.640;23.380;2023-04-29T05:39:21;94061.00;;;9.04;68.10
11808;BME280;5961;42.640;23.380;2023-04-29T05:41:49;94063.13;;;9.11;68.05
11808;BME280;5961;42.640;23.380;2023-04-29T05:44:16;94064.84;;;9.15;68.38
11808;BME280;5961;42.640;23.380;2023-04-29T05:46:43;94062.13;;;9.24;68.39
11808;BME280;5961;42.640;23.380;2023-04-29T05:49:10;94053.00;;;9.33;67.67
11808;BME280;5961;42.640;23.380;2023-04-29T05:51:37;94051.72;;;9.40;66.39
11808;BME280;5961;42.640;23.380;2023-04-29T05:54:04;94053.66;;;9.51;66.42
11808;BME280;5961;42.640;23.380;2023-04-29T05:56:30;94045.63;;;9.60;66.32
11808;BME280;5961;42.640;23.380;2023-04-29T05:58:58;94066.25;;;9.75;66.30
11808;BME280;5961;42.640;23.380;2023-04-29T06:01:26;94070.69;;;9.83;65.94
11808;BME280;5961;42.640;23.380;2023-04-29T06:03:52;94073.53;;;9.99;67.03
11808;BME280;5961;42.640;23.380;2023-04-29T06:06:19;94071.69;;;10.11;66.55
11808;BME280;5961;42.640;23.380;2023-04-29T06:08:46;94075.19;;;10.24;65.62
11808;BME280;5961;42.640;23.380;2023-04-29T06:11:13;94076.31;;;10.35;65.19
11808;BME280;5961;42.640;23.380;2023-04-29T06:13:40;94075.56;;;10.46;64.98
11808;BME280;5961;42.640;23.380;2023-04-29T06:16:08;94071.72;;;10.56;64.21
11808;BME280;5961;42.640;23.380;2023-04-29T06:18:35;94067.50;;;10.67;63.99
11808;BME280;5961;42.640;23.380;2023-04-29T06:21:02;94064.72;;;10.76;63.27
11808;BME280;5961;42.640;23.380;2023-04-29T06:23:29;94069.75;;;10.89;61.39
11808;BME280;5961;42.640;23.380;2023-04-29T06:25:57;94066.19;;;10.97;61.12
11808;BME280;5961;42.640;23.380;2023-04-29T06:28:23;94068.06;;;11.09;60.58
11808;BME280;5961;42.640;23.380;2023-04-29T06:30:50;94042.25;;;10.97;59.83
11808;BME280;5961;42.640;23.380;2023-04-29T06:33:18;94073.16;;;11.26;59.57
11808;BME280;5961;42.640;23.380;2023-04-29T06:35:45;94080.22;;;11.34;59.29
11808;BME280;5961;42.640;23.380;2023-04-29T06:38:12;94075.13;;;11.41;59.77
11808;BME280;5961;42.640;23.380;2023-04-29T06:40:38;94075.31;;;11.48;59.04
11808;BME280;5961;42.640;23.380;2023-04-29T06:43:05;94075.09;;;11.53;59.54
11808;BME280;5961;42.640;23.380;2023-04-29T06:45:32;94079.50;;;11.62;59.46
11808;BME280;5961;42.640;23.380;2023-04-29T06:47:58;94069.75;;;11.66;58.70
11808;BME280;5961;42.640;23.380;2023-04-29T06:50:26;94073.75;;;11.72;58.00
11808;BME280;5961;42.640;23.380;2023-04-29T06:52:53;94078.41;;;11.75;57.66
11808;BME280;5961;42.640;23.380;2023-04-29T06:55:20;94073.19;;;11.78;57.57
11808;BME280;5961;42.640;23.380;2023-04-29T06:57:46;94071.72;;;11.81;57.64
11808;BME280;5961;42.640;23.380;2023-04-29T07:00:13;94059.75;;;11.75;57.37
11808;BME280;5961;42.640;23.380;2023-04-29T07:02:40;94071.72;;;11.81;57.77
11808;BME280;5961;42.640;23.380;2023-04-29T07:05:08;94061.72;;;11.90;69.58
11808;BME280;5961;42.640;23.380;2023-04-29T07:07:36;94063.59;;;11.89;58.91
11808;BME280;5961;42.640;23.380;2023-04-29T07:10:03;94063.59;;;11.89;57.84
11808;BME280;5961;42.640;23.380;2023-04-29T07:12:30;94059.16;;;11.93;57.95
11808;BME280;5961;42.640;23.380;2023-04-29T07:14:56;94059.91;;;11.94;57.80
11808;BME280;5961;42.640;23.380;2023-04-29T07:17:24;94053.47;;;11.95;58.53
11808;BME280;5961;42.640;23.380;2023-04-29T07:19:50;94053.47;;;11.95;58.91
11808;BME280;5961;42.640;23.380;2023-04-29T07:22:17;94056.91;;;11.95;59.48
11808;BME280;5961;42.640;23.380;2023-04-29T07:24:45;94048.03;;;11.91;59.66
11808;BME280;5961;42.640;23.380;2023-04-29T07:27:12;94051.47;;;11.92;59.89
11808;BME280;5961;42.640;23.380;2023-04-29T07:29:39;94060.56;;;11.91;60.32
11808;BME280;5961;42.640;23.380;2023-04-29T07:32:05;94058.38;;;11.93;60.17
11808;BME280;5961;42.640;23.380;2023-04-29T07:34:32;94046.41;;;11.87;60.19
11808;BME280;5961;42.640;23.380;2023-04-29T07:36:58;94057.00;;;11.99;60.02
11808;BME280;5961;42.640;23.380;2023-04-29T07:39:25;94054.78;;;12.01;59.89
11808;BME280;5961;42.640;23.380;2023-04-29T07:41:54;94057.63;;;12.08;59.25
11808;BME280;5961;42.640;23.380;2023-04-29T07:44:21;94053.50;;;12.10;58.12
11808;BME280;5961;42.640;23.380;2023-04-29T07:46:48;94059.88;;;12.22;57.20
11808;BME280;5961;42.640;23.380;2023-04-29T07:49:14;94063.06;;;12.27;56.94
11808;BME280;5961;42.640;23.380;2023-04-29T07:51:41;94046.84;;;12.32;56.49
11808;BME280;5961;42.640;23.380;2023-04-29T07:54:08;94063.63;;;12.48;56.13
11808;BME280;5961;42.640;23.380;2023-04-29T07:56:35;94047.72;;;12.52;54.23
11808;BME280;5961;42.640;23.380;2023-04-29T07:59:03;94039.53;;;12.60;53.86
11808;BME280;5961;42.640;23.380;2023-04-29T08:01:30;94051.69;;;12.74;52.79
11808;BME280;5961;42.640;23.380;2023-04-29T08:03:57;94033.88;;;12.78;52.52
11808;BME280;5961;42.640;23.380;2023-04-29T08:06:23;94044.19;;;12.95;53.47
11808;BME280;5961;42.640;23.380;2023-04-29T08:08:50;94054.34;;;13.05;51.60
11808;BME280;5961;42.640;23.380;2023-04-29T08:11:17;94051.91;;;13.15;51.57
11808;BME280;5961;42.640;23.380;2023-04-29T08:13:45;94048.66;;;13.22;50.93
11808;BME280;5961;42.640;23.380;2023-04-29T08:16:13;94043.88;;;13.31;51.53
11808;BME280;5961;42.640;23.380;2023-04-29T08:18:40;94046.72;;;13.38;50.58
11808;BME280;5961;42.640;23.380;2023-04-29T08:21:06;94038.44;;;13.43;50.66
11808;BME280;5961;42.640;23.380;2023-04-29T08:23:35;94033.16;;;13.47;49.85
11808;BME280;5961;42.640;23.380;2023-04-29T08:26:02;94032.56;;;13.53;49.92
11808;BME280;5961;42.640;23.380;2023-04-29T08:28:29;94003.72;;;13.43;48.80
11808;BME280;5961;42.640;23.380;2023-04-29T08:30:55;94028.91;;;13.61;47.12
11808;BME280;5961;42.640;23.380;2023-04-29T08:33:24;94031.28;;;13.66;46.08
11808;BME280;5961;42.640;23.380;2023-04-29T08:35:57;94027.66;;;13.74;46.26
11808;BME280;5961;42.640;23.380;2023-04-29T08:38:24;94028.19;;;13.84;46.39
11808;BME280;5961;42.640;23.380;2023-04-29T08:40:52;94036.34;;;13.91;44.81
11808;BME280;5961;42.640;23.380;2023-04-29T08:43:19;94036.19;;;14.03;45.12
11808;BME280;5961;42.640;23.380;2023-04-29T08:45:47;94027.94;;;14.11;45.76
11808;BME280;5961;42.640;23.380;2023-04-29T08:48:14;94029.97;;;14.18;44.56
11808;BME280;5961;42.640;23.380;2023-04-29T08:50:43;94026.38;;;14.29;43.97
11808;BME280;5961;42.640;23.380;2023-04-29T08:53:11;94030.69;;;14.34;44.28
11808;BME280;5961;42.640;23.380;2023-04-29T08:55:40;94023.16;;;14.40;44.00
11808;BME280;5961;42.640;23.380;2023-04-29T08:58:08;94022.50;;;14.46;44.40
11808;BME280;5961;42.640;23.380;2023-04-29T09:00:35;94015.72;;;14.52;45.27
11808;BME280;5961;42.640;23.380;2023-04-29T09:03:09;94013.13;;;14.56;43.73
11808;BME280;5961;42.640;23.380;2023-04-29T09:05:37;93950.00;;;14.28;43.16
11808;BME280;5961;42.640;23.380;2023-04-29T09:08:08;94006.94;;;14.74;42.39
11808;BME280;5961;42.640;23.380;2023-04-29T09:10:37;94000.50;;;14.79;42.21
11808;BME280;5961;42.640;23.380;2023-04-29T09:13:04;94001.47;;;14.94;49.72
11808;BME280;5961;42.640;23.380;2023-04-29T09:15:35;94003.50;;;15.00;43.11
11808;BME280;5961;42.640;23.380;2023-04-29T09:21:25;93940.16;;;14.81;41.70
11808;BME280;5961;42.640;23.380;2023-04-29T09:23:55;93991.13;;;15.18;39.48
11808;BME280;5961;42.640;23.380;2023-04-29T09:26:22;93993.88;;;15.22;39.16
11808;BME280;5961;42.640;23.380;2023-04-29T09:29:05;93987.47;;;15.30;38.80
11808;BME280;5961;42.640;23.380;2023-04-29T09:31:32;93965.16;;;15.19;39.31
11808;BME280;5961;42.640;23.380;2023-04-29T09:33:58;93988.41;;;15.41;39.98
11808;BME280;5961;42.640;23.380;2023-04-29T09:36:36;93985.81;;;15.48;40.09
11808;BME280;5961;42.640;23.380;2023-04-29T09:39:05;93980.97;;;15.57;39.58
11808;BME280;5961;42.640;23.380;2023-04-29T09:41:37;93975.72;;;15.64;39.75
11808;BME280;5961;42.640;23.380;2023-04-29T09:44:04;93971.97;;;15.72;40.09
11808;BME280;5961;42.640;23.380;2023-04-29T09:46:32;93978.53;;;15.78;39.87
11808;BME280;5961;42.640;23.380;2023-04-29T09:48:59;93980.50;;;15.81;37.76
11808;BME280;5961;42.640;23.380;2023-04-29T09:51:26;93966.75;;;15.83;37.21
11808;BME280;5961;42.640;23.380;2023-04-29T09:53:53;93971.00;;;15.87;36.66
11808;BME280;5961;42.640;23.380;2023-04-29T09:56:21;93942.94;;;15.78;35.41
11808;BME280;5961;42.640;23.380;2023-04-29T09:58:48;93956.47;;;15.88;35.80
11808;BME280;5961;42.640;23.380;2023-04-29T10:01:15;93954.56;;;15.89;35.19
11808;BME280;5961;42.640;23.380;2023-04-29T10:03:46;93951.50;;;15.90;35.52
11808;BME280;5961;42.640;23.380;2023-04-29T10:06:16;93949.69;;;15.98;35.71
11808;BME280;5961;42.640;23.380;2023-04-29T10:08:43;93954.31;;;16.01;36.81
11808;BME280;5961;42.640;23.380;2023-04-29T10:11:12;93911.63;;;15.85;36.87
11808;BME280;5961;42.640;23.380;2023-04-29T10:13:41;93944.00;;;16.07;37.62
11808;BME280;5961;42.640;23.380;2023-04-29T10:16:17;93937.53;;;16.11;38.16
11808;BME280;5961;42.640;23.380;2023-04-29T10:18:51;93973.53;;;16.10;36.90
11808;BME280;5961;42.640;23.380;2023-04-29T10:21:20;93931.03;;;16.12;37.31
11808;BME280;5961;42.640;23.380;2023-04-29T10:23:49;93938.38;;;16.19;37.04
11808;BME280;5961;42.640;23.380;2023-04-29T10:26:17;93934.22;;;16.25;36.80
11808;BME280;5961;42.640;23.380;2023-04-29T10:28:49;93925.84;;;16.30;36.57
11808;BME280;5961;42.640;23.380;2023-04-29T10:31:18;93927.41;;;16.34;36.20
11808;BME280;5961;42.640;23.380;2023-04-29T10:33:48;93915.94;;;16.41;35.06
11808;BME280;5961;42.640;23.380;2023-04-29T10:36:15;93929.81;;;16.46;32.66
11808;BME280;5961;42.640;23.380;2023-04-29T10:38:45;93924.84;;;16.48;31.80
11808;BME280;5961;42.640;23.380;2023-04-29T10:41:18;93931.75;;;16.53;29.88
11808;BME280;5961;42.640;23.380;2023-04-29T10:43:49;93923.00;;;16.56;30.84
11808;BME280;5961;42.640;23.380;2023-04-29T10:46:17;93927.63;;;16.59;31.23
11808;BME280;5961;42.640;23.380;2023-04-29T10:48:44;93931.50;;;16.62;31.93
11808;BME280;5961;42.640;23.380;2023-04-29T10:51:10;93927.69;;;16.66;32.76
11808;BME280;5961;42.640;23.380;2023-04-29T10:53:59;93917.75;;;16.70;32.97
11808;BME280;5961;42.640;23.380;2023-04-29T10:56:43;93901.53;;;16.56;32.58
11808;BME280;5961;42.640;23.380;2023-04-29T10:59:15;93919.28;;;16.71;31.39
11808;BME280;5961;42.640;23.380;2023-04-29T11:01:47;93917.38;;;16.72;31.76
11808;BME280;5961;42.640;23.380;2023-04-29T11:04:14;93911.25;;;16.75;32.47
11808;BME280;5961;42.640;23.380;2023-04-29T11:06:45;93919.34;;;16.78;33.14
11808;BME280;5961;42.640;23.380;2023-04-29T11:09:18;93919.34;;;16.78;31.46
11808;BME280;5961;42.640;23.380;2023-04-29T11:11:46;93920.84;;;16.76;30.35
11808;BME280;5961;42.640;23.380;2023-04-29T11:14:21;93917.75;;;16.70;28.75
11808;BME280;5961;42.640;23.380;2023-04-29T11:16:51;93914.66;;;16.68;30.30
11808;BME280;5961;42.640;23.380;2023-04-29T11:19:18;93915.03;;;16.67;30.43
11808;BME280;5961;42.640;23.380;2023-04-29T11:21:45;93911.97;;;16.65;30.01
11808;BME280;5961;42.640;23.380;2023-04-29T11:24:13;93908.53;;;16.68;30.32
11808;BME280;5961;42.640;23.380;2023-04-29T11:26:41;93911.97;;;16.68;30.54
11808;BME280;5961;42.640;23.380;2023-04-29T11:29:10;93907.78;;;16.67;32.15
11808;BME280;5961;42.640;23.380;2023-04-29T11:31:38;93900.81;;;16.63;32.04
11808;BME280;5961;42.640;23.380;2023-04-29T11:34:05;93907.72;;;16.60;31.95
11808;BME280;5961;42.640;23.380;2023-04-29T11:36:33;93904.59;;;16.55;32.08
11808;BME280;5961;42.640;23.380;2023-04-29T11:39:00;93902.25;;;16.53;32.21
11808;BME280;5961;42.640;23.380;2023-04-29T11:41:28;93904.53;;;16.51;31.83
11808;BME280;5961;42.640;23.380;2023-04-29T11:43:56;93892.09;;;16.29;32.75
11808;BME280;5961;42.640;23.380;2023-04-29T11:46:23;93909.84;;;16.40;33.45
11808;BME280;5961;42.640;23.380;2023-04-29T11:48:51;93896.72;;;16.32;34.11
11808;BME280;5961;42.640;23.380;2023-04-29T11:51:18;93893.66;;;16.30;33.78
11808;BME280;5961;42.640;23.380;2023-04-29T11:53:45;93910.53;;;16.30;34.02
11808;BME280;5961;42.640;23.380;2023-04-29T11:56:12;93905.91;;;16.27;33.50
11808;BME280;5961;42.640;23.380;2023-04-29T11:58:41;93888.94;;;16.16;33.82
11808;BME280;5961;42.640;23.380;2023-04-29T12:01:07;93899.34;;;16.21;34.07
11808;BME280;5961;42.640;23.380;2023-04-29T12:03:34;93893.19;;;16.21;33.53
11808;BME280;5961;42.640;23.380;2023-04-29T12:06:03;93893.97;;;16.21;34.38
11808;BME280;5961;42.640;23.380;2023-04-29T12:08:30;93893.53;;;16.16;34.92
11808;BME280;5961;42.640;23.380;2023-04-29T12:10:58;93891.19;;;16.11;35.62
11808;BME280;5961;42.640;23.380;2023-04-29T12:13:27;93890.44;;;16.14;36.13
11808;BME280;5961;42.640;23.380;2023-04-29T12:15:55;93895.41;;;16.12;36.78
11808;BME280;5961;42.640;23.380;2023-04-29T12:18:22;93895.75;;;16.07;37.54
11808;BME280;5961;42.640;23.380;2023-04-29T12:20:49;93885.78;;;16.04;37.73
11808;BME280;5961;42.640;23.380;2023-04-29T12:23:20;93885.78;;;16.04;37.80
11808;BME280;5961;42.640;23.380;2023-04-29T12:25:48;93890.34;;;16.03;38.49
11808;BME280;5961;42.640;23.380;2023-04-29T12:28:16;93877.22;;;15.91;39.03
11808;BME280;5961;42.640;23.380;2023-04-29T12:30:43;93884.91;;;15.96;40.25
11808;BME280;5961;42.640;23.380;2023-04-29T12:33:15;93884.16;;;15.96;40.74
11808;BME280;5961;42.640;23.380;2023-04-29T12:35:41;93878.00;;;15.91;41.82
11808;BME280;5961;42.640;23.380;2023-04-29T12:38:08;93866.06;;;15.85;41.83
11808;BME280;5961;42.640;23.380;2023-04-29T12:40:36;93887.25;;;15.98;41.76
11808;BME280;5961;42.640;23.380;2023-04-29T12:43:07;93886.88;;;15.99;41.32
11808;BME280;5961;42.640;23.380;2023-04-29T12:45:34;93876.91;;;16.00;41.33
11808;BME280;5961;42.640;23.380;2023-04-29T12:48:01;93866.59;;;15.98;41.28
11808;BME280;5961;42.640;23.380;2023-04-29T12:50:33;93851.53;;;15.86;41.80
11808;BME280;5961;42.640;23.380;2023-04-29T12:53:01;93876.56;;;16.05;41.34
11808;BME280;5961;42.640;23.380;2023-04-29T12:55:29;93844.25;;;15.87;42.47
11808;BME280;5961;42.640;23.380;2023-04-29T12:57:58;93870.88;;;16.10;43.14
11808;BME280;5961;42.640;23.380;2023-04-29T13:00:25;93866.72;;;16.16;42.96
11808;BME280;5961;42.640;23.380;2023-04-29T13:02:52;93860.63;;;16.19;43.45
11808;BME280;5961;42.640;23.380;2023-04-29T13:05:18;93870.66;;;16.25;43.22
11808;BME280;5961;42.640;23.380;2023-04-29T13:07:46;93867.22;;;16.32;42.41
11808;BME280;5961;42.640;23.380;2023-04-29T13:10:13;93868.84;;;16.40;42.48
11808;BME280;5961;42.640;23.380;2023-04-29T13:12:40;93868.47;;;16.45;42.63